Westervelt, Illinois
Current Conditions -  °F | °C
As of 11:55 AM on Saturday 22 Nov 2014 (Local Time) from K1H2 Reporting Station
Overcast Overcast  
Wind Chill: 58°   Ceiling: 4200
Heat Index: 58°   Visibility: NA
Dew Point: 42°   Wind: 17mph
Humidity: 55%   Direction: 210°SSW
Pressure: 30.08"   Gusts: 24mph
Location:  39.3979°N, 88.811°W
Report Text: K1H2 221755Z AUTO 21015G21KT OVC042 15/06 A3008 RMK AO2 T01460057 10150 20056 PWINO
Loading
Personal Weather Stations






























Interactive Weather Map New forecast layout! Learn more

10-Day Weather Forecast

Advertisements
Track Severe Weather on mobile